sensor_id;sensor_type;location;lat;lon;timestamp;temperature;humidity
18753;DHT22;9505;50.882;5.350;2023-08-30T00:00:09;11.70;99.90
18753;DHT22;9505;50.882;5.350;2023-08-30T00:02:35;11.60;99.90
18753;DHT22;9505;50.882;5.350;2023-08-30T00:05:03;11.60;99.90
18753;DHT22;9505;50.882;5.350;2023-08-30T00:07:29;11.60;99.90
18753;DHT22;9505;50.882;5.350;2023-08-30T00:09:54;11.50;99.90
18753;DHT22;9505;50.882;5.350;2023-08-30T00:12:20;11.40;99.90
18753;DHT22;9505;50.882;5.350;2023-08-30T00:14:47;11.40;99.90
18753;DHT22;9505;50.882;5.350;2023-08-30T00:17:12;11.40;99.90
18753;DHT22;9505;50.882;5.350;2023-08-30T00:19:38;11.40;99.90
18753;DHT22;9505;50.882;5.350;2023-08-30T00:22:04;11.30;99.90
18753;DHT22;9505;50.882;5.350;2023-08-30T00:24:33;11.40;99.90
18753;DHT22;9505;50.882;5.350;2023-08-30T00:26:58;11.40;99.90
18753;DHT22;9505;50.882;5.350;2023-08-30T00:29:24;11.40;99.90
18753;DHT22;9505;50.882;5.350;2023-08-30T00:31:50;11.50;99.90
18753;DHT22;9505;50.882;5.350;2023-08-30T00:34:15;11.60;99.90
18753;DHT22;9505;50.882;5.350;2023-08-30T00:36:41;11.70;99.90
18753;DHT22;9505;50.882;5.350;2023-08-30T00:39:07;11.80;99.90
18753;DHT22;9505;50.882;5.350;2023-08-30T00:41:34;11.90;99.90
18753;DHT22;9505;50.882;5.350;2023-08-30T00:44:00;12.00;99.90
18753;DHT22;9505;50.882;5.350;2023-08-30T00:46:26;12.00;99.90
18753;DHT22;9505;50.882;5.350;2023-08-30T00:48:51;12.10;99.90
18753;DHT22;9505;50.882;5.350;2023-08-30T00:51:17;12.20;99.90
18753;DHT22;9505;50.882;5.350;2023-08-30T00:53:44;12.30;99.90
18753;DHT22;9505;50.882;5.350;2023-08-30T00:56:09;12.30;99.90
18753;DHT22;9505;50.882;5.350;2023-08-30T00:58:35;12.40;99.90
18753;DHT22;9505;50.882;5.350;2023-08-30T01:01:01;12.50;99.90
18753;DHT22;9505;50.882;5.350;2023-08-30T01:03:27;12.50;99.90
18753;DHT22;9505;50.882;5.350;2023-08-30T01:05:53;12.60;99.90
18753;DHT22;9505;50.882;5.350;2023-08-30T01:08:18;12.70;99.90
18753;DHT22;9505;50.882;5.350;2023-08-30T01:11:13;12.70;99.90
18753;DHT22;9505;50.882;5.350;2023-08-30T01:14:21;12.80;99.90
18753;DHT22;9505;50.882;5.350;2023-08-30T01:16:48;12.80;99.90
18753;DHT22;9505;50.882;5.350;2023-08-30T01:19:47;12.80;99.90
18753;DHT22;9505;50.882;5.350;2023-08-30T01:27:47;12.90;99.90
18753;DHT22;9505;50.882;5.350;2023-08-30T01:30:14;12.90;99.90
18753;DHT22;9505;50.882;5.350;2023-08-30T01:32:41;13.00;99.90
18753;DHT22;9505;50.882;5.350;2023-08-30T01:35:08;13.00;99.90
18753;DHT22;9505;50.882;5.350;2023-08-30T01:37:33;13.00;99.90
18753;DHT22;9505;50.882;5.350;2023-08-30T01:40:02;13.00;99.90
18753;DHT22;9505;50.882;5.350;2023-08-30T01:42:30;13.00;99.90
18753;DHT22;9505;50.882;5.350;2023-08-30T01:44:58;13.10;99.90
18753;DHT22;9505;50.882;5.350;2023-08-30T01:47:27;13.10;99.90
18753;DHT22;9505;50.882;5.350;2023-08-30T01:49:54;13.20;99.90
18753;DHT22;9505;50.882;5.350;2023-08-30T01:52:22;13.20;99.90
18753;DHT22;9505;50.882;5.350;2023-08-30T01:54:48;13.20;99.90
18753;DHT22;9505;50.882;5.350;2023-08-30T01:57:16;13.30;99.90
18753;DHT22;9505;50.882;5.350;2023-08-30T01:59:41;13.40;99.90
18753;DHT22;9505;50.882;5.350;2023-08-30T02:02:07;13.40;99.90
18753;DHT22;9505;50.882;5.350;2023-08-30T02:04:33;13.40;99.90
18753;DHT22;9505;50.882;5.350;2023-08-30T02:07:05;13.50;99.90
18753;DHT22;9505;50.882;5.350;2023-08-30T02:09:58;13.50;99.90
18753;DHT22;9505;50.882;5.350;2023-08-30T02:12:27;13.60;99.90
18753;DHT22;9505;50.882;5.350;2023-08-30T02:14:56;13.60;99.90
18753;DHT22;9505;50.882;5.350;2023-08-30T02:17:23;13.70;99.90
18753;DHT22;9505;50.882;5.350;2023-08-30T02:19:49;13.70;99.90
18753;DHT22;9505;50.882;5.350;2023-08-30T02:22:18;13.80;99.90
18753;DHT22;9505;50.882;5.350;2023-08-30T02:24:44;13.80;99.90
18753;DHT22;9505;50.882;5.350;2023-08-30T02:27:10;13.80;99.90
18753;DHT22;9505;50.882;5.350;2023-08-30T02:29:35;13.90;99.90
18753;DHT22;9505;50.882;5.350;2023-08-30T02:32:01;13.90;99.90
18753;DHT22;9505;50.882;5.350;2023-08-30T02:34:27;14.00;99.90
18753;DHT22;9505;50.882;5.350;2023-08-30T02:36:52;14.00;99.90
18753;DHT22;9505;50.882;5.350;2023-08-30T02:39:18;14.00;99.90
18753;DHT22;9505;50.882;5.350;2023-08-30T02:41:44;14.10;99.90
18753;DHT22;9505;50.882;5.350;2023-08-30T02:44:13;14.10;99.90
18753;DHT22;9505;50.882;5.350;2023-08-30T02:46:38;14.10;99.90
18753;DHT22;9505;50.882;5.350;2023-08-30T02:49:04;14.10;99.90
18753;DHT22;9505;50.882;5.350;2023-08-30T02:51:31;14.20;99.90
18753;DHT22;9505;50.882;5.350;2023-08-30T02:53:56;14.20;99.90
18753;DHT22;9505;50.882;5.350;2023-08-30T02:56:22;14.20;99.90
18753;DHT22;9505;50.882;5.350;2023-08-30T02:58:47;14.20;99.90
18753;DHT22;9505;50.882;5.350;2023-08-30T03:01:13;14.20;99.90
18753;DHT22;9505;50.882;5.350;2023-08-30T03:03:39;14.20;99.90
18753;DHT22;9505;50.882;5.350;2023-08-30T03:06:04;14.20;99.90
18753;DHT22;9505;50.882;5.350;2023-08-30T03:08:30;14.20;99.90
18753;DHT22;9505;50.882;5.350;2023-08-30T03:11:10;14.20;99.90
18753;DHT22;9505;50.882;5.350;2023-08-30T03:13:36;14.20;99.90
18753;DHT22;9505;50.882;5.350;2023-08-30T03:16:11;14.20;99.90
18753;DHT22;9505;50.882;5.350;2023-08-30T03:18:38;14.10;99.90
18753;DHT22;9505;50.882;5.350;2023-08-30T03:21:03;14.10;99.90
18753;DHT22;9505;50.882;5.350;2023-08-30T03:23:30;14.10;99.90
18753;DHT22;9505;50.882;5.350;2023-08-30T03:25:57;14.10;99.90
18753;DHT22;9505;50.882;5.350;2023-08-30T03:28:23;14.00;99.90
18753;DHT22;9505;50.882;5.350;2023-08-30T03:30:49;14.00;99.90
18753;DHT22;9505;50.882;5.350;2023-08-30T03:33:15;14.00;99.90
18753;DHT22;9505;50.882;5.350;2023-08-30T03:35:40;13.90;99.90
18753;DHT22;9505;50.882;5.350;2023-08-30T03:38:06;14.00;99.90
18753;DHT22;9505;50.882;5.350;2023-08-30T03:40:32;14.00;99.90
18753;DHT22;9505;50.882;5.350;2023-08-30T03:42:58;14.10;99.90
18753;DHT22;9505;50.882;5.350;2023-08-30T03:45:23;14.10;99.90
18753;DHT22;9505;50.882;5.350;2023-08-30T03:47:49;14.10;99.90
18753;DHT22;9505;50.882;5.350;2023-08-30T03:50:15;14.20;99.90
18753;DHT22;9505;50.882;5.350;2023-08-30T03:52:40;14.20;99.90
18753;DHT22;9505;50.882;5.350;2023-08-30T03:55:06;14.20;99.90
18753;DHT22;9505;50.882;5.350;2023-08-30T03:57:32;14.30;99.90
18753;DHT22;9505;50.882;5.350;2023-08-30T03:59:58;14.30;99.90
18753;DHT22;9505;50.882;5.350;2023-08-30T04:02:23;14.30;99.90
18753;DHT22;9505;50.882;5.350;2023-08-30T04:04:49;14.30;99.90
18753;DHT22;9505;50.882;5.350;2023-08-30T04:07:15;14.30;99.90
18753;DHT22;9505;50.882;5.350;2023-08-30T04:09:41;14.40;99.90
18753;DHT22;9505;50.882;5.350;2023-08-30T04:12:06;14.40;99.90
18753;DHT22;9505;50.882;5.350;2023-08-30T04:14:32;14.40;99.90
18753;DHT22;9505;50.882;5.350;2023-08-30T04:16:58;14.40;99.90
18753;DHT22;9505;50.882;5.350;2023-08-30T04:19:23;14.50;99.90
18753;DHT22;9505;50.882;5.350;2023-08-30T04:21:49;14.50;99.90
18753;DHT22;9505;50.882;5.350;2023-08-30T04:24:15;14.50;99.90
18753;DHT22;9505;50.882;5.350;2023-08-30T04:26:41;14.50;99.90
18753;DHT22;9505;50.882;5.350;2023-08-30T04:29:07;14.50;99.90
18753;DHT22;9505;50.882;5.350;2023-08-30T04:31:33;14.60;99.90
18753;DHT22;9505;50.882;5.350;2023-08-30T04:33:58;14.60;99.90
18753;DHT22;9505;50.882;5.350;2023-08-30T04:36:24;14.60;99.90
18753;DHT22;9505;50.882;5.350;2023-08-30T04:38:50;14.50;99.90
18753;DHT22;9505;50.882;5.350;2023-08-30T04:41:15;14.50;99.90
18753;DHT22;9505;50.882;5.350;2023-08-30T04:43:41;14.50;99.90
18753;DHT22;9505;50.882;5.350;2023-08-30T04:46:06;14.50;99.90
18753;DHT22;9505;50.882;5.350;2023-08-30T04:48:32;14.50;99.90
18753;DHT22;9505;50.882;5.350;2023-08-30T04:51:02;14.50;99.90
18753;DHT22;9505;50.882;5.350;2023-08-30T04:53:28;14.40;99.90
18753;DHT22;9505;50.882;5.350;2023-08-30T04:55:54;14.40;99.90
18753;DHT22;9505;50.882;5.350;2023-08-30T04:58:20;14.40;99.90
18753;DHT22;9505;50.882;5.350;2023-08-30T05:00:46;14.40;99.90
18753;DHT22;9505;50.882;5.350;2023-08-30T05:03:11;14.50;99.90
18753;DHT22;9505;50.882;5.350;2023-08-30T05:05:37;14.50;99.90
18753;DHT22;9505;50.882;5.350;2023-08-30T05:08:03;14.40;99.90
18753;DHT22;9505;50.882;5.350;2023-08-30T05:10:29;14.40;99.90
18753;DHT22;9505;50.882;5.350;2023-08-30T05:12:55;14.40;99.90
18753;DHT22;9505;50.882;5.350;2023-08-30T05:15:21;14.50;99.90
18753;DHT22;9505;50.882;5.350;2023-08-30T05:17:46;14.50;99.90
18753;DHT22;9505;50.882;5.350;2023-08-30T05:20:12;14.50;99.90
18753;DHT22;9505;50.882;5.350;2023-08-30T05:22:38;14.50;99.90
18753;DHT22;9505;50.882;5.350;2023-08-30T05:25:04;14.60;99.90
18753;DHT22;9505;50.882;5.350;2023-08-30T05:27:30;14.70;99.90
18753;DHT22;9505;50.882;5.350;2023-08-30T05:29:55;14.70;99.90
18753;DHT22;9505;50.882;5.350;2023-08-30T05:32:21;14.70;99.90
18753;DHT22;9505;50.882;5.350;2023-08-30T05:34:47;14.80;99.90
18753;DHT22;9505;50.882;5.350;2023-08-30T05:37:13;14.80;99.90
18753;DHT22;9505;50.882;5.350;2023-08-30T05:39:39;14.80;99.90
18753;DHT22;9505;50.882;5.350;2023-08-30T05:42:04;14.80;99.90
18753;DHT22;9505;50.882;5.350;2023-08-30T05:44:30;14.90;99.90
18753;DHT22;9505;50.882;5.350;2023-08-30T05:46:56;15.00;99.90
18753;DHT22;9505;50.882;5.350;2023-08-30T05:49:21;15.00;99.90
18753;DHT22;9505;50.882;5.350;2023-08-30T05:51:47;15.10;99.90
18753;DHT22;9505;50.882;5.350;2023-08-30T05:54:13;15.00;99.90
18753;DHT22;9505;50.882;5.350;2023-08-30T05:56:39;15.00;99.90
18753;DHT22;9505;50.882;5.350;2023-08-30T05:59:05;15.10;99.90
18753;DHT22;9505;50.882;5.350;2023-08-30T06:01:30;15.20;99.90
18753;DHT22;9505;50.882;5.350;2023-08-30T06:03:56;15.30;99.90
18753;DHT22;9505;50.882;5.350;2023-08-30T06:06:22;15.30;99.90
18753;DHT22;9505;50.882;5.350;2023-08-30T06:08:47;15.40;99.90
18753;DHT22;9505;50.882;5.350;2023-08-30T06:11:13;15.40;99.90
18753;DHT22;9505;50.882;5.350;2023-08-30T06:13:40;15.50;99.90
18753;DHT22;9505;50.882;5.350;2023-08-30T06:16:06;15.60;99.90
18753;DHT22;9505;50.882;5.350;2023-08-30T06:18:32;15.60;99.90
18753;DHT22;9505;50.882;5.350;2023-08-30T06:20:58;15.60;99.90
18753;DHT22;9505;50.882;5.350;2023-08-30T06:23:23;15.60;99.90
18753;DHT22;9505;50.882;5.350;2023-08-30T06:25:58;15.60;99.90
18753;DHT22;9505;50.882;5.350;2023-08-30T06:28:24;15.60;99.90
18753;DHT22;9505;50.882;5.350;2023-08-30T06:30:50;15.50;99.90
18753;DHT22;9505;50.882;5.350;2023-08-30T06:33:16;15.50;99.90
18753;DHT22;9505;50.882;5.350;2023-08-30T06:35:42;15.40;99.90
18753;DHT22;9505;50.882;5.350;2023-08-30T06:38:08;15.30;99.90
18753;DHT22;9505;50.882;5.350;2023-08-30T06:40:33;15.40;99.90
18753;DHT22;9505;50.882;5.350;2023-08-30T06:42:59;15.50;99.90
18753;DHT22;9505;50.882;5.350;2023-08-30T06:45:25;15.60;99.90
18753;DHT22;9505;50.882;5.350;2023-08-30T06:47:51;15.70;99.90
18753;DHT22;9505;50.882;5.350;2023-08-30T06:50:18;15.60;99.90
18753;DHT22;9505;50.882;5.350;2023-08-30T06:52:44;15.70;99.90
18753;DHT22;9505;50.882;5.350;2023-08-30T06:55:09;15.70;99.90
18753;DHT22;9505;50.882;5.350;2023-08-30T06:57:35;15.80;99.90
18753;DHT22;9505;50.882;5.350;2023-08-30T07:00:01;16.00;99.90
18753;DHT22;9505;50.882;5.350;2023-08-30T07:02:34;16.20;99.90
18753;DHT22;9505;50.882;5.350;2023-08-30T07:05:00;16.10;99.90
18753;DHT22;9505;50.882;5.350;2023-08-30T07:07:26;16.10;99.90
18753;DHT22;9505;50.882;5.350;2023-08-30T07:09:52;16.10;99.90
18753;DHT22;9505;50.882;5.350;2023-08-30T07:12:17;16.00;99.90
18753;DHT22;9505;50.882;5.350;2023-08-30T07:14:43;16.00;99.90
18753;DHT22;9505;50.882;5.350;2023-08-30T07:17:09;15.90;99.90
18753;DHT22;9505;50.882;5.350;2023-08-30T07:19:34;16.00;99.90
18753;DHT22;9505;50.882;5.350;2023-08-30T07:22:00;16.20;99.90
18753;DHT22;9505;50.882;5.350;2023-08-30T07:24:25;16.30;99.90
18753;DHT22;9505;50.882;5.350;2023-08-30T07:26:51;16.40;99.90
18753;DHT22;9505;50.882;5.350;2023-08-30T07:29:17;16.40;99.90
18753;DHT22;9505;50.882;5.350;2023-08-30T07:31:42;16.30;99.90
18753;DHT22;9505;50.882;5.350;2023-08-30T07:34:08;16.30;99.90
18753;DHT22;9505;50.882;5.350;2023-08-30T07:36:34;16.60;99.90
18753;DHT22;9505;50.882;5.350;2023-08-30T07:38:59;16.60;99.90
18753;DHT22;9505;50.882;5.350;2023-08-30T07:41:25;16.60;99.90
18753;DHT22;9505;50.882;5.350;2023-08-30T07:43:51;16.70;99.90
18753;DHT22;9505;50.882;5.350;2023-08-30T07:46:16;16.80;99.90
18753;DHT22;9505;50.882;5.350;2023-08-30T07:48:42;16.80;99.90
18753;DHT22;9505;50.882;5.350;2023-08-30T07:51:07;16.80;99.90
18753;DHT22;9505;50.882;5.350;2023-08-30T07:53:33;16.90;99.90
18753;DHT22;9505;50.882;5.350;2023-08-30T07:55:59;17.00;99.90
18753;DHT22;9505;50.882;5.350;2023-08-30T07:58:24;17.10;99.90
18753;DHT22;9505;50.882;5.350;2023-08-30T08:00:51;17.30;99.90
18753;DHT22;9505;50.882;5.350;2023-08-30T08:03:17;17.40;99.90
18753;DHT22;9505;50.882;5.350;2023-08-30T08:05:43;17.20;99.90
18753;DHT22;9505;50.882;5.350;2023-08-30T08:08:08;17.20;99.90
18753;DHT22;9505;50.882;5.350;2023-08-30T08:10:36;16.90;99.90
18753;DHT22;9505;50.882;5.350;2023-08-30T08:13:02;16.70;99.90
18753;DHT22;9505;50.882;5.350;2023-08-30T08:15:30;16.70;99.90
18753;DHT22;9505;50.882;5.350;2023-08-30T08:18:02;16.50;99.90
18753;DHT22;9505;50.882;5.350;2023-08-30T08:20:29;16.40;99.90
18753;DHT22;9505;50.882;5.350;2023-08-30T08:22:55;16.30;99.90
18753;DHT22;9505;50.882;5.350;2023-08-30T08:25:21;16.00;99.90
18753;DHT22;9505;50.882;5.350;2023-08-30T08:27:49;15.80;99.90
18753;DHT22;9505;50.882;5.350;2023-08-30T08:30:15;15.40;99.90
18753;DHT22;9505;50.882;5.350;2023-08-30T08:32:40;15.00;99.90
18753;DHT22;9505;50.882;5.350;2023-08-30T08:35:06;14.90;99.90
18753;DHT22;9505;50.882;5.350;2023-08-30T08:37:32;14.80;99.90
18753;DHT22;9505;50.882;5.350;2023-08-30T08:39:58;14.70;99.90
18753;DHT22;9505;50.882;5.350;2023-08-30T08:42:24;14.80;99.90
18753;DHT22;9505;50.882;5.350;2023-08-30T08:44:54;14.80;99.90
18753;DHT22;9505;50.882;5.350;2023-08-30T08:47:21;14.70;99.90
18753;DHT22;9505;50.882;5.350;2023-08-30T08:49:48;14.70;99.90
18753;DHT22;9505;50.882;5.350;2023-08-30T08:52:15;14.80;99.90
18753;DHT22;9505;50.882;5.350;2023-08-30T08:54:41;14.90;99.90
18753;DHT22;9505;50.882;5.350;2023-08-30T08:57:08;14.80;99.90
18753;DHT22;9505;50.882;5.350;2023-08-30T08:59:34;14.90;99.90
18753;DHT22;9505;50.882;5.350;2023-08-30T09:02:00;14.90;99.90
18753;DHT22;9505;50.882;5.350;2023-08-30T09:04:28;14.80;99.90
18753;DHT22;9505;50.882;5.350;2023-08-30T09:06:55;14.90;99.90
18753;DHT22;9505;50.882;5.350;2023-08-30T09:09:21;14.80;99.90
18753;DHT22;9505;50.882;5.350;2023-08-30T09:11:48;14.70;99.90
18753;DHT22;9505;50.882;5.350;2023-08-30T09:14:14;14.40;99.90
18753;DHT22;9505;50.882;5.350;2023-08-30T09:16:40;14.40;99.90
18753;DHT22;9505;50.882;5.350;2023-08-30T09:19:05;14.40;99.90
18753;DHT22;9505;50.882;5.350;2023-08-30T09:21:32;14.50;99.90
18753;DHT22;9505;50.882;5.350;2023-08-30T09:24:03;14.70;99.90
18753;DHT22;9505;50.882;5.350;2023-08-30T09:26:30;14.90;99.90
18753;DHT22;9505;50.882;5.350;2023-08-30T09:29:06;15.00;99.90
18753;DHT22;9505;50.882;5.350;2023-08-30T09:31:35;15.00;99.90
18753;DHT22;9505;50.882;5.350;2023-08-30T09:34:05;15.10;99.90
18753;DHT22;9505;50.882;5.350;2023-08-30T09:36:41;15.20;99.90
18753;DHT22;9505;50.882;5.350;2023-08-30T09:39:09;15.20;99.90
18753;DHT22;9505;50.882;5.350;2023-08-30T09:41:41;15.10;99.90
18753;DHT22;9505;50.882;5.350;2023-08-30T09:44:11;15.00;99.90
18753;DHT22;9505;50.882;5.350;2023-08-30T09:46:46;15.00;99.90
18753;DHT22;9505;50.882;5.350;2023-08-30T09:49:12;15.10;99.90
18753;DHT22;9505;50.882;5.350;2023-08-30T09:51:40;15.20;99.90
18753;DHT22;9505;50.882;5.350;2023-08-30T09:54:19;15.10;99.90
18753;DHT22;9505;50.882;5.350;2023-08-30T09:56:46;15.20;99.90
18753;DHT22;9505;50.882;5.350;2023-08-30T09:59:13;15.10;99.90
18753;DHT22;9505;50.882;5.350;2023-08-30T10:01:43;15.20;99.90
18753;DHT22;9505;50.882;5.350;2023-08-30T10:04:12;15.30;99.90
18753;DHT22;9505;50.882;5.350;2023-08-30T10:06:38;15.40;99.90
18753;DHT22;9505;50.882;5.350;2023-08-30T10:09:05;15.40;99.90
18753;DHT22;9505;50.882;5.350;2023-08-30T10:11:35;15.60;99.90
18753;DHT22;9505;50.882;5.350;2023-08-30T10:14:03;15.60;99.90
18753;DHT22;9505;50.882;5.350;2023-08-30T10:16:45;15.40;99.90
18753;DHT22;9505;50.882;5.350;2023-08-30T10:21:45;15.20;99.90
18753;DHT22;9505;50.882;5.350;2023-08-30T10:24:14;15.30;99.90
18753;DHT22;9505;50.882;5.350;2023-08-30T10:26:43;15.30;99.90
18753;DHT22;9505;50.882;5.350;2023-08-30T10:29:10;15.30;99.90
18753;DHT22;9505;50.882;5.350;2023-08-30T10:31:38;15.30;99.90
18753;DHT22;9505;50.882;5.350;2023-08-30T10:34:15;15.20;99.90
18753;DHT22;9505;50.882;5.350;2023-08-30T10:36:42;15.40;99.90
18753;DHT22;9505;50.882;5.350;2023-08-30T10:39:12;15.50;99.90
18753;DHT22;9505;50.882;5.350;2023-08-30T10:41:53;15.40;99.90
18753;DHT22;9505;50.882;5.350;2023-08-30T10:44:19;15.50;99.90
18753;DHT22;9505;50.882;5.350;2023-08-30T10:46:54;15.50;99.90
18753;DHT22;9505;50.882;5.350;2023-08-30T10:49:21;15.60;99.90
18753;DHT22;9505;50.882;5.350;2023-08-30T10:51:57;15.60;99.90
18753;DHT22;9505;50.882;5.350;2023-08-30T10:54:23;15.80;99.90
18753;DHT22;9505;50.882;5.350;2023-08-30T10:56:55;15.80;99.90
18753;DHT22;9505;50.882;5.350;2023-08-30T10:59:26;16.00;99.90
18753;DHT22;9505;50.882;5.350;2023-08-30T11:01:53;16.20;99.90
18753;DHT22;9505;50.882;5.350;2023-08-30T11:04:19;16.10;99.90
18753;DHT22;9505;50.882;5.350;2023-08-30T11:06:49;16.20;99.90
18753;DHT22;9505;50.882;5.350;2023-08-30T11:09:22;16.20;99.90
18753;DHT22;9505;50.882;5.350;2023-08-30T11:11:50;16.20;99.90
18753;DHT22;9505;50.882;5.350;2023-08-30T11:14:17;16.30;99.90
18753;DHT22;9505;50.882;5.350;2023-08-30T11:16:43;16.10;99.90
18753;DHT22;9505;50.882;5.350;2023-08-30T11:19:10;16.00;99.90
18753;DHT22;9505;50.882;5.350;2023-08-30T11:21:38;16.10;99.90
18753;DHT22;9505;50.882;5.350;2023-08-30T11:24:05;16.20;99.90
18753;DHT22;9505;50.882;5.350;2023-08-30T11:26:31;16.30;99.90
18753;DHT22;9505;50.882;5.350;2023-08-30T11:28:56;16.40;99.90
18753;DHT22;9505;50.882;5.350;2023-08-30T11:31:24;16.50;99.90
18753;DHT22;9505;50.882;5.350;2023-08-30T11:33:53;16.80;99.90
18753;DHT22;9505;50.882;5.350;2023-08-30T11:36:31;17.30;99.90
18753;DHT22;9505;50.882;5.350;2023-08-30T11:38:57;17.50;99.90
18753;DHT22;9505;50.882;5.350;2023-08-30T11:41:24;17.60;99.90
18753;DHT22;9505;50.882;5.350;2023-08-30T11:43:54;17.80;99.90
18753;DHT22;9505;50.882;5.350;2023-08-30T11:46:20;17.60;99.90
18753;DHT22;9505;50.882;5.350;2023-08-30T11:48:48;17.30;99.90
18753;DHT22;9505;50.882;5.350;2023-08-30T11:51:14;17.10;99.90
18753;DHT22;9505;50.882;5.350;2023-08-30T11:53:40;17.00;99.90
18753;DHT22;9505;50.882;5.350;2023-08-30T11:56:06;17.00;99.90
18753;DHT22;9505;50.882;5.350;2023-08-30T11:58:35;17.00;99.90
18753;DHT22;9505;50.882;5.350;2023-08-30T12:01:02;17.20;99.90
18753;DHT22;9505;50.882;5.350;2023-08-30T12:03:32;17.20;99.90
18753;DHT22;9505;50.882;5.350;2023-08-30T12:05:58;17.30;99.90
18753;DHT22;9505;50.882;5.350;2023-08-30T12:10:51;17.80;99.90
18753;DHT22;9505;50.882;5.350;2023-08-30T12:15:50;17.40;99.90
18753;DHT22;9505;50.882;5.350;2023-08-30T12:18:16;17.40;99.90
18753;DHT22;9505;50.882;5.350;2023-08-30T12:20:58;17.50;99.90
18753;DHT22;9505;50.882;5.350;2023-08-30T12:23:25;17.30;99.90
18753;DHT22;9505;50.882;5.350;2023-08-30T12:26:02;17.30;99.90
18753;DHT22;9505;50.882;5.350;2023-08-30T12:28:36;17.30;99.90
18753;DHT22;9505;50.882;5.350;2023-08-30T12:31:02;17.20;99.90
18753;DHT22;9505;50.882;5.350;2023-08-30T12:33:31;17.10;99.90
18753;DHT22;9505;50.882;5.350;2023-08-30T12:35:58;17.10;99.90
18753;DHT22;9505;50.882;5.350;2023-08-30T12:38:24;17.30;99.90
18753;DHT22;9505;50.882;5.350;2023-08-30T12:40:52;17.10;99.90
18753;DHT22;9505;50.882;5.350;2023-08-30T12:43:19;17.30;99.90
18753;DHT22;9505;50.882;5.350;2023-08-30T12:45:48;17.30;99.90
18753;DHT22;9505;50.882;5.350;2023-08-30T12:48:15;17.30;99.90
18753;DHT22;9505;50.882;5.350;2023-08-30T12:50:45;17.20;99.90
18753;DHT22;9505;50.882;5.350;2023-08-30T12:53:10;17.50;99.90
18753;DHT22;9505;50.882;5.350;2023-08-30T12:55:36;18.20;99.90
18753;DHT22;9505;50.882;5.350;2023-08-30T12:58:07;18.90;99.90
18753;DHT22;9505;50.882;5.350;2023-08-30T13:00:33;19.10;99.90
18753;DHT22;9505;50.882;5.350;2023-08-30T13:02:59;19.10;99.90
18753;DHT22;9505;50.882;5.350;2023-08-30T13:05:25;19.00;99.90
18753;DHT22;9505;50.882;5.350;2023-08-30T13:07:51;18.80;99.90
18753;DHT22;9505;50.882;5.350;2023-08-30T13:10:17;19.00;99.90
18753;DHT22;9505;50.882;5.350;2023-08-30T13:12:43;18.90;99.90
18753;DHT22;9505;50.882;5.350;2023-08-30T13:15:09;18.70;99.90
18753;DHT22;9505;50.882;5.350;2023-08-30T13:17:34;18.40;99.90
18753;DHT22;9505;50.882;5.350;2023-08-30T13:20:00;18.30;99.90
18753;DHT22;9505;50.882;5.350;2023-08-30T13:22:27;18.30;99.90
18753;DHT22;9505;50.882;5.350;2023-08-30T13:24:53;18.40;99.90
18753;DHT22;9505;50.882;5.350;2023-08-30T13:27:19;18.50;99.90
18753;DHT22;9505;50.882;5.350;2023-08-30T13:29:45;18.20;99.90
18753;DHT22;9505;50.882;5.350;2023-08-30T13:32:11;18.00;99.90
18753;DHT22;9505;50.882;5.350;2023-08-30T13:34:37;18.00;99.90
18753;DHT22;9505;50.882;5.350;2023-08-30T13:37:04;17.90;99.90
18753;DHT22;9505;50.882;5.350;2023-08-30T13:39:30;18.00;99.90
18753;DHT22;9505;50.882;5.350;2023-08-30T13:41:55;18.10;99.90
18753;DHT22;9505;50.882;5.350;2023-08-30T13:44:21;18.30;99.90
18753;DHT22;9505;50.882;5.350;2023-08-30T13:46:47;18.60;99.90
18753;DHT22;9505;50.882;5.350;2023-08-30T13:49:14;18.80;99.90
18753;DHT22;9505;50.882;5.350;2023-08-30T13:51:41;19.30;99.90
18753;DHT22;9505;50.882;5.350;2023-08-30T13:54:07;19.30;99.90
18753;DHT22;9505;50.882;5.350;2023-08-30T13:56:33;19.30;99.90
18753;DHT22;9505;50.882;5.350;2023-08-30T13:58:58;19.20;99.90
18753;DHT22;9505;50.882;5.350;2023-08-30T14:01:24;19.10;99.90
18753;DHT22;9505;50.882;5.350;2023-08-30T14:03:50;19.30;99.90
18753;DHT22;9505;50.882;5.350;2023-08-30T14:06:15;19.80;99.90
18753;DHT22;9505;50.882;5.350;2023-08-30T14:08:42;20.40;99.90
18753;DHT22;9505;50.882;5.350;2023-08-30T14:11:08;20.40;99.90
18753;DHT22;9505;50.882;5.350;2023-08-30T14:13:34;20.60;99.90
18753;DHT22;9505;50.882;5.350;2023-08-30T14:16:01;20.40;99.90
18753;DHT22;9505;50.882;5.350;2023-08-30T14:18:27;20.60;99.90
18753;DHT22;9505;50.882;5.350;2023-08-30T14:20:56;20.70;99.90
18753;DHT22;9505;50.882;5.350;2023-08-30T14:23:26;21.20;99.90
18753;DHT22;9505;50.882;5.350;2023-08-30T14:26:03;21.50;99.90
18753;DHT22;9505;50.882;5.350;2023-08-30T14:28:34;21.30;99.90
18753;DHT22;9505;50.882;5.350;2023-08-30T14:31:00;21.40;99.90
18753;DHT22;9505;50.882;5.350;2023-08-30T14:33:26;21.10;99.90
18753;DHT22;9505;50.882;5.350;2023-08-30T14:35:52;21.20;99.90
18753;DHT22;9505;50.882;5.350;2023-08-30T14:38:17;21.30;99.90
18753;DHT22;9505;50.882;5.350;2023-08-30T14:40:43;21.60;99.90
18753;DHT22;9505;50.882;5.350;2023-08-30T14:43:09;21.60;99.90
18753;DHT22;9505;50.882;5.350;2023-08-30T14:45:34;21.30;99.90
18753;DHT22;9505;50.882;5.350;2023-08-30T14:48:00;21.20;99.90
18753;DHT22;9505;50.882;5.350;2023-08-30T14:50:26;21.30;99.90
18753;DHT22;9505;50.882;5.350;2023-08-30T14:52:51;21.40;99.90
18753;DHT22;9505;50.882;5.350;2023-08-30T14:55:20;22.00;99.90
18753;DHT22;9505;50.882;5.350;2023-08-30T14:57:46;22.00;99.90
18753;DHT22;9505;50.882;5.350;2023-08-30T15:00:12;21.90;99.90
18753;DHT22;9505;50.882;5.350;2023-08-30T15:02:37;21.60;99.90
18753;DHT22;9505;50.882;5.350;2023-08-30T15:05:03;21.70;99.90
18753;DHT22;9505;50.882;5.350;2023-08-30T15:07:29;21.80;99.90
18753;DHT22;9505;50.882;5.350;2023-08-30T15:09:54;22.10;99.90
18753;DHT22;9505;50.882;5.350;2023-08-30T15:12:20;21.70;99.90
18753;DHT22;9505;50.882;5.350;2023-08-30T15:14:46;21.30;99.90
18753;DHT22;9505;50.882;5.350;2023-08-30T15:17:13;20.80;99.90
18753;DHT22;9505;50.882;5.350;2023-08-30T15:19:39;20.20;99.90
18753;DHT22;9505;50.882;5.350;2023-08-30T15:22:04;19.50;99.90
18753;DHT22;9505;50.882;5.350;2023-08-30T15:24:30;19.20;99.90
18753;DHT22;9505;50.882;5.350;2023-08-30T15:26:56;19.00;99.90
18753;DHT22;9505;50.882;5.350;2023-08-30T15:29:21;18.90;99.90
18753;DHT22;9505;50.882;5.350;2023-08-30T15:31:47;18.80;99.90
18753;DHT22;9505;50.882;5.350;2023-08-30T15:34:19;18.70;99.90
18753;DHT22;9505;50.882;5.350;2023-08-30T15:36:45;18.60;99.90
18753;DHT22;9505;50.882;5.350;2023-08-30T15:39:13;18.70;99.90
18753;DHT22;9505;50.882;5.350;2023-08-30T15:41:39;19.00;99.90
18753;DHT22;9505;50.882;5.350;2023-08-30T15:44:04;19.20;99.90
18753;DHT22;9505;50.882;5.350;2023-08-30T15:46:30;19.10;99.90
18753;DHT22;9505;50.882;5.350;2023-08-30T15:48:56;18.90;99.90
18753;DHT22;9505;50.882;5.350;2023-08-30T15:51:21;19.00;99.90
18753;DHT22;9505;50.882;5.350;2023-08-30T15:53:47;19.30;99.90
18753;DHT22;9505;50.882;5.350;2023-08-30T15:56:13;19.50;99.90